Time;durP1;ratioP1;P1;durP2;ratioP2;P2;SDS_P1;SDS_P2;PMS_P1;PMS_P2;Temp;Humidity;BMP_temperature;BMP_pressure;BME280_temperature;BME280_humidity;BME280_pressure;Samples;Min_cycle;Max_cycle;Signal;HPM_P1;HPM_P2
2021/09/05 00:01:39;;;;;;;13.20;8.02;;;;;;;18.29;71.09;102170.56;4936814;29;20126;-78
2021/09/05 00:04:05;;;;;;;13.30;7.65;;;;;;;18.30;70.54;102170.59;4929907;29;20027;-79
2021/09/05 00:06:31;;;;;;;15.93;7.88;;;;;;;18.32;71.12;102169.75;4942728;29;20032;-79
2021/09/05 00:08:57;;;;;;;14.20;7.88;;;;;;;18.30;71.37;102164.50;4927054;29;20031;-79
2021/09/05 00:11:22;;;;;;;15.25;7.78;;;;;;;18.32;70.82;102169.75;4943604;29;20053;-79
2021/09/05 00:13:48;;;;;;;14.93;7.97;;;;;;;18.31;70.40;102163.63;4940821;29;20027;-79
2021/09/05 00:16:13;;;;;;;15.07;8.02;;;;;;;18.32;70.64;102170.59;4962253;29;20058;-79
2021/09/05 00:18:38;;;;;;;13.95;8.13;;;;;;;18.31;69.63;102168.84;4961901;29;20488;-79
2021/09/05 00:21:05;;;;;;;16.42;8.57;;;;;;;18.32;71.14;102172.34;4929257;29;20031;-79
2021/09/05 00:23:30;;;;;;;15.50;8.48;;;;;;;18.31;70.32;102174.06;4958845;29;20023;-81
2021/09/05 00:25:56;;;;;;;16.55;8.38;;;;;;;18.30;70.85;102169.72;4929170;29;20047;-81
2021/09/05 00:28:22;;;;;;;15.02;8.98;;;;;;;18.29;70.06;102173.16;4960439;29;20126;-81
2021/09/05 00:30:47;;;;;;;15.88;8.82;;;;;;;18.29;69.46;102163.66;4944617;29;20091;-81
2021/09/05 00:33:12;;;;;;;16.10;8.77;;;;;;;18.32;69.97;102167.13;4930584;29;20039;-81
2021/09/05 00:35:38;;;;;;;14.30;9.13;;;;;;;18.31;69.95;102176.66;4957928;29;20059;-81
2021/09/05 00:38:03;;;;;;;19.98;8.98;;;;;;;18.30;69.24;102175.78;4937124;29;20051;-81
2021/09/05 00:40:28;;;;;;;16.40;8.80;;;;;;;18.29;69.44;102175.78;4946719;29;20031;-81
2021/09/05 00:42:54;;;;;;;11.68;8.13;;;;;;;18.29;69.91;102174.06;4934783;29;20040;-81
2021/09/05 00:45:19;;;;;;;17.88;8.93;;;;;;;18.29;70.15;102174.06;4942574;29;20038;-81
2021/09/05 00:47:44;;;;;;;15.50;8.63;;;;;;;18.29;69.95;102171.47;4918671;29;20054;-82
2021/09/05 00:50:12;;;;;;;14.05;8.50;;;;;;;18.30;69.80;102175.78;4905705;29;20498;-81
2021/09/05 00:52:39;;;;;;;14.48;8.95;;;;;;;18.29;68.97;102168.84;4956632;28;20023;-80
2021/09/05 00:55:05;;;;;;;12.68;8.15;;;;;;;18.29;69.96;102173.16;4955872;29;20023;-80
2021/09/05 02:02:23;;;;;;;11.15;8.00;;;;;;;18.33;68.69;102187.97;6044131;23;20968;31
2021/09/05 02:04:48;;;;;;;13.95;8.30;;;;;;;18.33;68.09;102189.72;4906676;29;20049;-81
2021/09/05 02:07:14;;;;;;;13.43;8.10;;;;;;;18.32;68.26;102190.59;4906077;29;20055;-81
2021/09/05 02:09:39;;;;;;;13.63;8.65;;;;;;;18.33;67.68;102187.09;4873973;29;20035;-81
2021/09/05 02:12:05;;;;;;;13.18;8.35;;;;;;;18.33;67.58;102187.97;4889942;29;20036;-81
2021/09/05 02:14:30;;;;;;;13.25;8.30;;;;;;;18.33;68.01;102187.97;4905393;29;20029;-81
2021/09/05 02:16:55;;;;;;;13.00;8.57;;;;;;;18.34;67.46;102189.75;4895970;29;20468;-81
2021/09/05 02:19:21;;;;;;;11.68;8.70;;;;;;;18.33;67.51;102190.59;4887815;29;20069;-81
2021/09/05 02:21:46;;;;;;;15.13;9.25;;;;;;;18.34;67.78;102188.88;4889145;29;20052;-80
2021/09/05 02:24:11;;;;;;;14.55;8.65;;;;;;;18.35;68.05;102195.81;4873484;29;20028;-81
2021/09/05 02:26:37;;;;;;;11.88;8.00;;;;;;;18.33;67.01;102189.72;4869778;29;20025;-81
2021/09/05 02:29:02;;;;;;;12.32;8.35;;;;;;;18.32;67.91;102191.47;4877277;29;20511;-81
2021/09/05 02:31:28;;;;;;;15.88;8.57;;;;;;;18.33;67.64;102190.59;4889887;29;20033;-81
2021/09/05 02:33:53;;;;;;;13.50;9.13;;;;;;;18.33;67.25;102190.59;4891159;29;20033;-81
2021/09/05 03:18:42;;;;;;;14.15;9.40;;;;;;;18.31;67.04;102192.31;4917103;29;20051;-82
2021/09/05 03:21:08;;;;;;;13.88;8.95;;;;;;;18.32;66.87;102191.47;4882925;29;20068;-83
2021/09/05 03:23:33;;;;;;;15.40;8.88;;;;;;;18.32;67.18;102190.59;4910633;29;20066;-82
2021/09/05 03:49:15;;;;;;;14.45;8.95;;;;;;;18.29;65.70;102186.19;5090615;23;20046;-81
2021/09/05 03:51:41;;;;;;;11.65;8.70;;;;;;;18.28;66.44;102185.34;4977672;28;20067;-81
2021/09/05 03:54:06;;;;;;;14.43;8.90;;;;;;;18.30;65.95;102191.44;4978004;28;20094;-81
2021/09/05 03:56:31;;;;;;;13.98;8.90;;;;;;;18.28;66.41;102187.06;4964139;28;20054;-81
2021/09/05 03:59:02;;;;;;;14.43;9.32;;;;;;;18.28;66.04;102185.34;4964165;28;20031;-82
2021/09/05 04:01:29;;;;;;;12.90;9.07;;;;;;;18.29;65.63;102187.09;4982214;28;20002;-82
2021/09/05 04:03:54;;;;;;;13.55;8.50;;;;;;;18.28;65.49;102182.72;4981931;28;20011;-82
2021/09/05 04:06:20;;;;;;;14.05;9.23;;;;;;;18.28;65.58;102182.72;4983215;28;20041;-81
2021/09/05 04:08:48;;;;;;;15.10;8.98;;;;;;;18.27;65.67;102180.13;4982328;28;20034;-81
2021/09/05 04:11:14;;;;;;;14.50;8.95;;;;;;;18.27;65.21;102185.34;4983780;28;20022;-82
2021/09/05 04:13:39;;;;;;;13.30;9.02;;;;;;;18.27;66.25;102190.56;4964425;28;20067;-81
2021/09/05 04:16:05;;;;;;;13.48;9.05;;;;;;;18.27;66.13;102188.81;4961392;28;20123;-81
2021/09/05 04:18:30;;;;;;;13.98;9.35;;;;;;;18.26;65.75;102186.19;4957764;29;20031;-81
2021/09/05 04:20:56;;;;;;;13.60;8.88;;;;;;;18.27;65.85;102186.22;4970345;28;20057;-81
2021/09/05 04:23:21;;;;;;;14.57;9.48;;;;;;;18.27;65.95;102191.41;4945993;28;20058;-81
2021/09/05 04:25:47;;;;;;;14.00;9.27;;;;;;;18.25;65.66;102193.13;4964393;28;20090;-82
2021/09/05 04:28:13;;;;;;;16.92;9.23;;;;;;;18.27;65.17;102187.94;4983294;28;20037;-82
2021/09/05 04:38:23;;;;;;;15.93;9.27;;;;;;;18.26;64.90;102192.25;5590127;23;20059;-81
2021/09/05 04:40:49;;;;;;;16.23;8.82;;;;;;;18.26;65.72;102194.88;4951064;29;20512;-81
2021/09/05 04:43:14;;;;;;;15.13;9.02;;;;;;;18.27;64.79;102200.97;4969125;29;20029;-80
2021/09/05 04:45:39;;;;;;;16.73;9.25;;;;;;;18.26;65.39;102201.81;4937208;29;20023;-80
2021/09/05 04:48:07;;;;;;;13.15;9.25;;;;;;;18.26;65.51;102207.03;4950777;29;20031;-81
2021/09/05 04:50:32;;;;;;;13.52;9.27;;;;;;;18.25;65.50;102208.78;4940593;29;20046;-80
2021/09/05 04:52:58;;;;;;;13.45;8.95;;;;;;;18.24;65.14;102214.81;4916820;29;20114;-79
2021/09/05 05:18:41;;;;;;;14.00;9.05;;;;;;;18.30;64.92;102227.91;5706899;23;20046;-82
2021/09/05 05:21:08;;;;;;;11.35;8.15;;;;;;;18.35;64.88;102230.56;5595590;23;20058;-79
2021/09/05 05:23:34;;;;;;;13.73;8.90;;;;;;;18.42;65.36;102223.66;4960688;29;20066;-81
2021/09/05 05:26:03;;;;;;;12.93;8.43;;;;;;;18.43;64.59;102228.03;4937959;29;20133;-82
2021/09/05 05:28:29;;;;;;;12.63;8.75;;;;;;;18.42;65.64;102231.50;4948608;28;20501;-80
2021/09/05 05:30:54;;;;;;;14.45;8.88;;;;;;;18.41;64.95;102228.03;4950099;29;20047;-81
2021/09/05 05:33:20;;;;;;;14.75;9.00;;;;;;;18.41;65.23;102235.84;4948012;29;20027;-80
2021/09/05 05:35:45;;;;;;;16.90;8.95;;;;;;;18.44;64.25;102235.00;4963348;29;20521;-81
2021/09/05 05:38:13;;;;;;;13.18;8.77;;;;;;;18.46;64.93;102238.47;5002263;23;20051;-82
2021/09/05 05:40:38;;;;;;;17.20;9.38;;;;;;;18.52;65.33;102243.75;4962474;28;20062;-81
2021/09/05 05:45:57;;;;;;;19.85;10.55;;;;;;;18.55;66.08;102241.16;5083063;23;20058;-80
2021/09/05 05:48:22;;;;;;;39.72;13.88;;;;;;;18.59;63.79;102245.56;4943145;29;20045;-79
2021/09/05 05:50:48;;;;;;;40.20;14.82;;;;;;;18.62;65.25;102249.94;4973492;24;20051;-79
2021/09/05 05:53:14;;;;;;;36.22;15.27;;;;;;;18.63;64.38;102247.31;4934437;29;20036;-79
2021/09/05 05:55:46;;;;;;;50.40;15.50;;;;;;;18.74;63.82;102249.16;4926992;29;20031;-78
2021/09/05 05:58:11;;;;;;;47.30;16.73;;;;;;;18.84;65.51;102246.66;4957586;29;20023;-78
2021/09/05 06:00:38;;;;;;;43.78;14.48;;;;;;;19.06;65.81;102249.44;4938124;29;20106;-78
2021/09/05 06:03:05;;;;;;;41.50;15.85;;;;;;;19.33;63.97;102243.50;4929889;29;20098;-78
2021/09/05 06:05:30;;;;;;;40.33;15.00;;;;;;;19.63;65.20;102237.56;4941043;29;20065;-77
2021/09/05 06:07:56;;;;;;;41.08;14.95;;;;;;;19.83;64.72;102242.88;4925302;29;20058;-77
2021/09/05 06:10:22;;;;;;;39.90;14.68;;;;;;;19.98;64.22;102242.06;4958053;29;20038;-77
2021/09/05 06:12:47;;;;;;;34.50;14.55;;;;;;;20.07;63.05;102247.31;4924666;29;20035;-78
2021/09/05 06:15:12;;;;;;;29.15;13.23;;;;;;;20.14;62.84;102246.47;4940969;29;20036;-78
2021/09/05 06:17:38;;;;;;;31.17;11.98;;;;;;;20.23;62.28;102248.22;4926106;29;20071;-77
2021/09/05 06:20:06;;;;;;;22.98;11.23;;;;;;;20.30;62.17;102249.09;4925226;28;20047;-77
2021/09/05 06:22:31;;;;;;;26.20;11.70;;;;;;;20.39;61.37;102248.25;4925326;29;20039;-77
2021/09/05 06:24:57;;;;;;;24.83;10.52;;;;;;;20.44;60.84;102247.38;4940969;29;20518;-78
2021/09/05 06:27:22;;;;;;;21.00;10.80;;;;;;;20.51;60.41;102249.13;4940855;29;20111;-77
2021/09/05 06:29:48;;;;;;;21.10;10.05;;;;;;;20.57;60.10;102258.75;4941670;29;20027;-78
2021/09/05 06:32:13;;;;;;;20.88;10.25;;;;;;;20.65;59.91;102249.16;4925985;29;20035;-78
2021/09/05 06:34:38;;;;;;;24.08;11.45;;;;;;;20.77;59.84;102250.88;4922844;29;20042;-77
2021/09/05 06:37:04;;;;;;;30.95;11.65;;;;;;;20.90;60.07;102255.22;4926352;29;20031;-78
2021/09/05 06:39:29;;;;;;;22.95;11.98;;;;;;;20.95;59.87;102257.88;4923126;29;20039;-78
2021/09/05 06:41:54;;;;;;;24.65;11.02;;;;;;;20.97;59.51;102248.28;4945811;29;20031;-77
2021/09/05 06:44:21;;;;;;;21.17;11.35;;;;;;;20.96;58.03;102257.00;4947491;29;20062;-78
2021/09/05 06:46:46;;;;;;;25.65;10.93;;;;;;;20.93;57.65;102257.88;4963833;29;20027;-78
2021/09/05 06:49:12;;;;;;;22.13;10.55;;;;;;;21.02;57.75;102262.22;4941520;29;20375;-78
2021/09/05 06:51:37;;;;;;;25.10;11.23;;;;;;;21.04;57.17;102267.47;4927017;29;20046;-77
2021/09/05 06:54:02;;;;;;;16.70;10.40;;;;;;;21.07;57.38;102263.06;4935024;29;20035;-77
2021/09/05 06:56:28;;;;;;;16.85;9.95;;;;;;;21.07;56.42;102268.31;4940262;29;20040;-77
2021/09/05 06:58:53;;;;;;;14.65;10.15;;;;;;;21.14;56.02;102274.41;4918012;29;20037;-78
2021/09/05 07:01:18;;;;;;;19.73;10.15;;;;;;;21.16;56.25;102277.88;4903394;29;20038;-78
2021/09/05 07:03:44;;;;;;;15.82;8.70;;;;;;;21.20;54.97;102278.78;4887740;29;20716;-78
2021/09/05 07:06:09;;;;;;;16.63;10.30;;;;;;;21.07;56.42;102280.53;4920966;29;20031;-78
2021/09/05 07:08:35;;;;;;;14.73;9.88;;;;;;;21.05;56.03;102283.13;4907748;29;20458;-78
2021/09/05 07:11:01;;;;;;;20.77;11.23;;;;;;;20.96;55.75;102285.78;4907910;29;20032;-78
2021/09/05 07:13:26;;;;;;;26.13;12.63;;;;;;;20.91;55.85;102277.94;4922645;29;20497;-78
2021/09/05 07:15:52;;;;;;;23.80;10.93;;;;;;;20.77;56.38;102282.28;4891511;29;20036;-78
2021/09/05 07:18:17;;;;;;;17.48;11.40;;;;;;;20.22;57.45;102283.06;4907288;29;20103;-79
2021/09/05 07:20:42;;;;;;;19.13;11.10;;;;;;;20.07;58.85;102286.50;4916630;29;20023;-79
2021/09/05 07:23:10;;;;;;;17.50;10.65;;;;;;;20.10;57.87;102288.28;4920325;29;20055;-82
2021/09/05 07:25:43;;;;;;;18.27;10.32;;;;;;;20.09;57.49;102287.38;4901352;29;20055;-87
2021/09/05 07:28:11;;;;;;;12.27;10.38;;;;;;;20.08;58.42;102288.25;4921683;29;20015;-82
2021/09/05 07:30:36;;;;;;;15.30;10.10;;;;;;;20.03;58.01;102292.59;4924230;29;20032;-81
2021/09/05 07:33:01;;;;;;;19.20;10.07;;;;;;;20.04;58.13;102303.94;4908998;29;20035;-81
2021/09/05 07:35:27;;;;;;;24.55;10.73;;;;;;;20.02;58.13;102289.97;4940830;29;20020;-82
2021/09/05 07:37:52;;;;;;;17.58;10.55;;;;;;;19.95;58.18;102299.53;4922265;29;20099;-82
2021/09/05 07:40:19;;;;;;;20.27;10.82;;;;;;;19.86;58.26;102299.47;4942630;29;20137;-83
2021/09/05 07:42:44;;;;;;;18.45;11.52;;;;;;;19.84;59.02;102304.72;4943390;29;20026;-83
2021/09/05 07:45:11;;;;;;;16.58;9.88;;;;;;;19.88;58.70;102302.97;4932909;29;20059;-81
2021/09/05 07:47:36;;;;;;;22.63;11.10;;;;;;;19.90;58.53;102303.84;4914026;29;20055;-81
2021/09/05 07:50:03;;;;;;;16.25;10.38;;;;;;;19.89;58.12;102297.75;4931384;29;20039;-82
2021/09/05 07:52:28;;;;;;;17.40;10.07;;;;;;;19.88;58.84;102308.19;4939418;29;20035;-81
2021/09/05 08:13:02;;;;;;;18.88;12.00;;;;;;;19.75;58.46;102328.19;6011912;23;20021;-81
2021/09/05 08:20:38;;;;;;;18.95;11.05;;;;;;;19.73;58.73;102335.16;5204620;23;20053;-81
2021/09/05 08:23:04;;;;;;;15.88;10.30;;;;;;;19.84;58.79;102332.59;4973194;28;20031;-81
2021/09/05 08:28:03;;;;;;;15.82;10.45;;;;;;;19.90;58.67;102324.75;4922118;29;20036;-82
2021/09/05 08:30:29;;;;;;;15.75;9.82;;;;;;;19.91;58.03;102332.63;4907675;29;20043;-81
2021/09/05 08:48:26;;;;;;;15.73;8.93;;;;;;;19.72;57.18;102342.09;5957715;23;20315;-85
2021/09/05 09:29:40;;;;;;;13.20;8.43;;;;;;;19.64;54.40;102350.72;5254930;23;20059;-80
2021/09/05 09:32:19;;;;;;;14.15;7.43;;;;;;;19.55;54.37;102346.31;4968578;28;20027;-81
2021/09/05 09:34:47;;;;;;;16.50;8.43;;;;;;;19.51;55.07;102348.03;4967731;28;20030;-80
2021/09/05 09:37:14;;;;;;;14.63;8.02;;;;;;;19.50;55.54;102346.28;4986823;28;20026;-81
2021/09/05 09:39:49;;;;;;;12.30;8.05;;;;;;;19.52;55.78;102344.56;4969582;28;20030;-80
2021/09/05 09:42:38;;;;;;;13.35;7.97;;;;;;;19.58;55.78;102343.72;4970732;28;20054;-81
2021/09/05 09:45:15;;;;;;;13.40;7.72;;;;;;;19.60;56.23;102347.22;4973835;28;20019;-81
2021/09/05 09:47:42;;;;;;;15.23;8.02;;;;;;;19.60;56.28;102346.34;4962497;28;20027;-81
2021/09/05 09:50:08;;;;;;;12.20;7.72;;;;;;;19.61;56.67;102343.75;4990906;28;20027;-81
2021/09/05 09:52:34;;;;;;;14.30;8.23;;;;;;;19.62;55.99;102347.22;4956993;28;20098;-80
2021/09/05 09:54:59;;;;;;;15.05;7.70;;;;;;;19.63;55.83;102343.75;4973447;28;20473;-81
2021/09/05 09:57:25;;;;;;;14.15;7.90;;;;;;;19.60;54.12;102338.50;4974000;28;20038;-81
2021/09/05 09:59:50;;;;;;;11.55;7.43;;;;;;;19.59;55.51;102342.84;4973719;28;20027;-81
2021/09/05 10:02:18;;;;;;;11.45;7.57;;;;;;;19.60;55.38;102334.19;4959702;28;20031;-81
2021/09/05 10:04:48;;;;;;;11.38;7.63;;;;;;;19.62;55.42;102340.28;4971439;28;20077;-78
2021/09/05 10:07:16;;;;;;;9.68;7.00;;;;;;;19.60;55.51;102339.41;4959495;28;20018;-78
2021/09/05 10:09:42;;;;;;;12.02;7.38;;;;;;;19.62;55.63;102337.66;4959647;28;20027;-78
2021/09/05 10:12:09;;;;;;;12.38;7.47;;;;;;;19.64;55.13;102330.72;4943855;28;20031;-78
2021/09/05 10:14:37;;;;;;;12.45;6.75;;;;;;;19.66;55.52;102335.94;4927941;28;20035;-79
2021/09/05 10:17:02;;;;;;;11.13;6.53;;;;;;;19.66;56.05;102341.16;4962812;28;20026;-78
2021/09/05 10:19:28;;;;;;;12.98;7.25;;;;;;;19.67;55.26;102335.94;4947097;28;20555;-78
2021/09/05 10:21:54;;;;;;;11.70;6.80;;;;;;;19.67;55.28;102340.31;4962509;28;20026;-78
2021/09/05 10:24:19;;;;;;;12.50;7.85;;;;;;;19.65;55.16;102340.28;4931412;28;20034;-78
2021/09/05 10:27:02;;;;;;;10.73;7.07;;;;;;;19.68;55.57;102342.03;4947142;28;20094;-78
2021/09/05 10:29:28;;;;;;;10.95;7.47;;;;;;;19.71;55.65;102339.50;4969961;28;20047;-78
2021/09/05 10:31:53;;;;;;;9.95;7.03;;;;;;;19.73;55.51;102335.16;4943704;29;20390;-78
2021/09/05 10:34:39;;;;;;;11.43;7.38;;;;;;;19.73;55.63;102333.41;4928517;29;20038;-78
2021/09/05 10:37:11;;;;;;;13.05;7.22;;;;;;;19.74;55.51;102342.09;4961732;29;20035;-77
2021/09/05 10:39:36;;;;;;;11.07;7.35;;;;;;;19.75;56.01;102346.47;4943782;29;20024;-79
2021/09/05 10:42:02;;;;;;;11.55;7.40;;;;;;;19.76;55.82;102344.75;4932142;29;20038;-77
2021/09/05 10:44:28;;;;;;;11.15;7.35;;;;;;;19.76;55.70;102337.75;4954939;28;20031;-78
2021/09/05 10:46:55;;;;;;;10.52;6.88;;;;;;;19.78;55.88;102337.78;4937566;29;20019;-78
2021/09/05 10:49:41;;;;;;;10.60;7.25;;;;;;;19.80;56.24;102342.16;4946886;29;20109;-78
2021/09/05 10:52:07;;;;;;;10.40;6.65;;;;;;;19.81;56.13;102337.78;4929518;29;20044;-77
2021/09/05 10:54:44;;;;;;;13.68;7.55;;;;;;;19.82;56.25;102339.53;4947546;29;20170;-78
2021/09/05 10:57:10;;;;;;;11.00;7.10;;;;;;;19.85;56.28;102345.63;4947969;29;20039;-80
2021/09/05 10:59:36;;;;;;;12.82;7.38;;;;;;;19.86;56.20;102336.06;4948070;29;20031;-77
2021/09/05 11:02:04;;;;;;;11.18;7.90;;;;;;;19.83;56.12;102334.31;4932184;29;20062;-77
2021/09/05 11:04:39;;;;;;;16.67;8.60;;;;;;;19.81;55.71;102328.19;4947126;29;20052;-77
2021/09/05 11:07:08;;;;;;;12.20;8.20;;;;;;;19.79;55.34;102340.38;4945725;29;20078;-78
2021/09/05 11:09:33;;;;;;;12.07;7.88;;;;;;;19.77;55.80;102339.50;4943425;29;20042;-78
2021/09/05 11:12:21;;;;;;;13.02;8.02;;;;;;;19.78;55.37;102343.00;4947286;29;20031;-77
2021/09/05 11:14:50;;;;;;;13.15;7.97;;;;;;;19.78;55.38;102349.09;4946618;29;20035;-78
2021/09/05 11:17:19;;;;;;;11.25;7.65;;;;;;;19.79;55.31;102342.13;4945029;29;20070;-77
2021/09/05 11:19:44;;;;;;;12.55;7.90;;;;;;;19.77;54.73;102342.09;4944023;29;20024;-78
2021/09/05 11:22:17;;;;;;;13.63;9.20;;;;;;;19.79;55.08;102350.81;4944810;29;20110;-77
2021/09/05 11:24:44;;;;;;;56.03;16.65;;;;;;;19.86;55.38;102339.56;4943292;29;20042;-77
2021/09/05 11:27:12;;;;;;;38.60;13.68;;;;;;;19.91;55.39;102336.97;4912418;29;20031;-77
2021/09/05 11:29:38;;;;;;;36.75;13.43;;;;;;;19.94;55.13;102335.22;4941997;29;20043;-77
2021/09/05 11:32:09;;;;;;;29.75;12.00;;;;;;;19.96;55.49;102331.75;4944968;29;20027;-77
2021/09/05 11:34:36;;;;;;;27.95;11.88;;;;;;;19.98;55.37;102328.28;4959924;28;20082;-78
2021/09/05 11:37:03;;;;;;;34.05;10.50;;;;;;;20.01;55.79;102328.31;4924837;29;20435;-78
2021/09/05 11:39:28;;;;;;;24.10;10.38;;;;;;;20.02;56.20;102331.78;4938995;29;20027;-77
2021/09/05 11:41:56;;;;;;;29.58;10.45;;;;;;;20.03;56.15;102334.38;4921652;29;20087;-78
2021/09/05 11:44:36;;;;;;;22.75;8.68;;;;;;;20.04;55.71;102327.44;4921072;29;20371;-78
2021/09/05 11:47:20;;;;;;;15.05;7.78;;;;;;;20.07;55.71;102328.31;4922848;29;20050;-78
2021/09/05 11:49:47;;;;;;;;;;;;;;;20.09;55.86;102325.72;4923395;29;20031;-78
2021/09/05 11:52:18;;;;;;;17.55;8.52;;;;;;;20.09;55.94;102320.50;4924322;29;19918;-78
2021/09/05 11:54:47;;;;;;;14.32;7.90;;;;;;;20.09;55.98;102318.75;4924496;29;20023;-78
2021/09/05 11:57:12;;;;;;;17.98;8.00;;;;;;;20.10;56.13;102327.47;4920929;29;20036;-79
2021/09/05 11:59:41;;;;;;;16.30;7.70;;;;;;;20.11;56.17;102319.63;4922738;29;20107;-79
2021/09/05 12:02:07;;;;;;;16.65;7.53;;;;;;;20.12;56.13;102325.72;4908394;29;20050;-78
2021/09/05 12:04:34;;;;;;;17.30;8.00;;;;;;;20.13;55.96;102319.63;4892332;29;20023;-78
2021/09/05 12:07:00;;;;;;;14.93;8.32;;;;;;;20.13;56.44;102322.25;4923729;29;20027;-78
2021/09/05 12:09:30;;;;;;;12.30;7.45;;;;;;;20.16;56.27;102324.00;4920590;29;20063;-78
2021/09/05 12:11:57;;;;;;;14.18;7.43;;;;;;;20.14;56.09;102321.38;4921675;29;20031;-78
2021/09/05 12:14:37;;;;;;;11.73;6.93;;;;;;;20.16;56.19;102319.63;4924884;29;20509;-78
2021/09/05 12:17:20;;;;;;;13.93;7.82;;;;;;;20.17;55.84;102325.75;4925197;29;20063;-78
2021/09/05 12:20:08;;;;;;;10.60;6.67;;;;;;;20.17;55.95;102321.41;4925105;29;20028;-78
2021/09/05 12:23:04;;;;;;;11.35;6.28;;;;;;;20.17;56.24;102324.00;4942184;29;20095;-78
2021/09/05 12:25:36;;;;;;;10.52;7.05;;;;;;;20.19;56.01;102332.72;4923976;29;20028;-78
2021/09/05 12:28:07;;;;;;;10.45;6.57;;;;;;;20.18;56.07;102327.50;4923218;29;20083;-78
2021/09/05 12:30:50;;;;;;;10.95;6.47;;;;;;;20.17;56.25;102328.38;4940189;29;20078;-78
2021/09/05 12:33:30;;;;;;;11.45;6.65;;;;;;;20.17;56.49;102329.22;4933578;29;20485;-78
2021/09/05 12:36:05;;;;;;;11.35;6.32;;;;;;;20.20;56.31;102325.75;4939498;29;20126;-79
2021/09/05 12:38:35;;;;;;;11.52;7.00;;;;;;;20.23;56.30;102321.41;4940165;29;20028;-78
2021/09/05 12:41:09;;;;;;;10.18;6.47;;;;;;;20.22;56.21;102330.09;4920141;29;20020;-78
2021/09/05 12:44:11;;;;;;;9.40;6.32;;;;;;;20.24;56.47;102314.44;4921315;29;20078;-78
2021/09/05 12:46:37;;;;;;;11.15;6.78;;;;;;;20.25;56.54;102330.13;4897994;29;20039;-78
2021/09/05 12:49:17;;;;;;;9.90;6.40;;;;;;;20.24;56.98;102323.16;4932521;29;20020;-78
2021/09/05 12:51:55;;;;;;;11.80;6.40;;;;;;;20.26;56.99;102310.97;4924845;29;20082;-78
2021/09/05 12:54:23;;;;;;;8.65;6.63;;;;;;;20.27;56.89;102307.50;4935138;29;20020;-78
2021/09/05 12:56:49;;;;;;;7.65;5.80;;;;;;;20.27;57.27;102310.09;4938695;29;20034;-78
2021/09/05 12:59:15;;;;;;;7.78;6.13;;;;;;;20.28;56.99;102311.84;4917504;29;20036;-78
2021/09/05 13:01:41;;;;;;;9.18;5.60;;;;;;;20.30;57.34;102310.09;4939914;29;20032;-78
2021/09/05 13:04:07;;;;;;;9.07;6.00;;;;;;;20.30;56.99;102304.00;4933783;29;20114;-78
2021/09/05 13:06:33;;;;;;;9.40;6.13;;;;;;;20.31;57.40;102297.91;4940977;29;20059;-78
2021/09/05 13:08:58;;;;;;;10.20;6.32;;;;;;;20.32;57.26;102297.91;4940430;29;20027;-78
2021/09/05 13:11:29;;;;;;;11.15;6.28;;;;;;;20.33;57.45;102298.78;4936225;29;20049;-78
2021/09/05 13:13:56;;;;;;;7.05;5.70;;;;;;;20.35;57.73;102302.25;4947760;29;20031;-79
2021/09/05 13:16:22;;;;;;;9.18;6.20;;;;;;;20.34;57.56;102297.91;4927321;29;20028;-79
2021/09/05 13:18:48;;;;;;;9.60;6.30;;;;;;;20.36;57.61;102298.78;4942898;29;20382;-78
2021/09/05 13:21:15;;;;;;;7.22;5.93;;;;;;;20.36;57.83;102293.56;4935290;29;20027;-78
2021/09/05 13:23:42;;;;;;;8.10;5.80;;;;;;;20.38;57.58;102291.81;4939812;29;20043;-78
2021/09/05 13:26:12;;;;;;;7.95;5.97;;;;;;;20.40;57.65;102297.91;4933773;29;20168;-79
2021/09/05 13:28:38;;;;;;;8.27;5.72;;;;;;;20.41;57.80;102299.66;4941317;29;20039;-78
2021/09/05 13:31:03;;;;;;;7.75;5.50;;;;;;;20.42;57.78;102295.31;4923718;29;20042;-78
2021/09/05 13:33:29;;;;;;;9.20;6.10;;;;;;;20.41;57.68;102293.56;4924359;29;20035;-78
2021/09/05 13:35:54;;;;;;;10.93;6.38;;;;;;;20.43;56.96;102291.84;4942555;29;20481;-78
2021/09/05 13:38:20;;;;;;;8.77;5.88;;;;;;;20.43;57.81;102284.84;4911091;29;20106;-78
2021/09/05 13:40:48;;;;;;;8.38;5.90;;;;;;;20.42;57.59;102288.31;4942540;29;20117;-78
2021/09/05 13:43:13;;;;;;;7.05;5.72;;;;;;;20.44;57.63;102280.50;4942942;29;20122;-78
2021/09/05 13:45:39;;;;;;;7.45;5.70;;;;;;;20.46;57.95;102282.22;4926665;29;20551;-78
2021/09/05 13:48:04;;;;;;;8.85;5.78;;;;;;;20.46;57.91;102281.38;4942888;29;20035;-78
2021/09/05 13:50:30;;;;;;;6.15;4.95;;;;;;;20.46;58.00;102279.63;4927740;29;20390;-78
2021/09/05 13:52:55;;;;;;;7.85;5.75;;;;;;;20.48;57.70;102282.25;4964004;29;20039;-78
2021/09/05 13:55:20;;;;;;;7.43;5.43;;;;;;;20.48;57.73;102283.09;4914521;29;20126;-78
2021/09/05 13:57:46;;;;;;;7.28;5.85;;;;;;;20.50;57.72;102276.13;4911615;29;20035;-78
2021/09/05 14:00:12;;;;;;;7.63;5.68;;;;;;;20.51;57.75;102280.50;4928088;29;20509;-78
2021/09/05 14:02:37;;;;;;;8.90;5.82;;;;;;;20.52;57.42;102268.31;4945040;29;20405;-78
2021/09/05 14:05:03;;;;;;;8.75;5.90;;;;;;;20.53;57.66;102276.16;4914605;29;20050;-78
2021/09/05 14:07:28;;;;;;;8.10;5.78;;;;;;;20.55;57.94;102281.38;4913768;29;20031;-78
2021/09/05 14:09:54;;;;;;;7.65;5.93;;;;;;;20.55;57.64;102274.38;4929228;29;20023;-78
2021/09/05 14:12:19;;;;;;;7.78;5.72;;;;;;;20.55;57.58;102274.38;4946099;29;20035;-78
2021/09/05 14:14:44;;;;;;;7.25;5.40;;;;;;;20.57;57.94;102269.19;4913434;29;20062;-78
2021/09/05 14:17:10;;;;;;;7.20;5.35;;;;;;;20.57;57.87;102271.81;4927823;28;20107;-78
2021/09/05 14:19:37;;;;;;;7.38;5.60;;;;;;;20.58;57.86;102273.56;4912545;29;20039;-78
2021/09/05 14:22:03;;;;;;;8.68;6.05;;;;;;;20.61;57.56;102270.09;4928069;29;20027;-78
2021/09/05 14:24:29;;;;;;;7.50;5.43;;;;;;;20.60;57.62;102271.84;4945945;29;20098;-78
2021/09/05 14:26:58;;;;;;;6.57;5.30;;;;;;;20.61;57.76;102265.72;4929336;29;20114;-78
2021/09/05 14:29:31;;;;;;;8.07;5.97;;;;;;;20.62;57.43;102272.72;4944243;29;20051;-78
2021/09/05 14:32:06;;;;;;;;;;;;;;;20.62;57.62;102269.19;4944839;29;20166;-78
2021/09/05 14:47:58;;;;;;;7.68;5.53;;;;;;;20.68;57.45;102277.91;4958898;28;20512;-78
2021/09/05 14:55:56;;;;;;;8.77;5.68;;;;;;;20.71;57.60;102282.31;4959414;29;20037;-78
2021/09/05 14:58:23;;;;;;;7.55;5.43;;;;;;;20.72;57.32;102284.03;4941962;29;20033;-78
2021/09/05 15:00:58;;;;;;;6.80;5.47;;;;;;;20.72;57.23;102277.06;4942702;28;20027;-78
2021/09/05 15:06:04;;;;;;;6.82;5.43;;;;;;;20.75;57.32;102281.41;4941760;29;20110;-78
2021/09/05 15:11:14;;;;;;;7.28;5.15;;;;;;;20.76;57.26;102275.31;4930868;28;20572;-78
2021/09/05 15:13:39;;;;;;;8.02;5.65;;;;;;;20.79;56.73;102277.91;4941635;29;20114;-78
2021/09/05 15:16:05;;;;;;;6.47;5.20;;;;;;;20.79;57.01;102271.81;4941648;29;20050;-79
2021/09/05 15:18:33;;;;;;;6.60;5.13;;;;;;;20.79;57.23;102277.91;4942072;29;20085;-78
2021/09/05 15:20:59;;;;;;;7.28;5.80;;;;;;;20.80;57.09;102278.81;4925880;29;20031;-78
2021/09/05 15:23:27;;;;;;;7.53;6.03;;;;;;;20.79;57.21;102280.53;4925406;29;20130;-78
2021/09/05 15:25:53;;;;;;;6.60;5.40;;;;;;;20.81;57.33;102277.94;4941443;29;20031;-78
2021/09/05 15:30:50;;;;;;;6.00;5.03;;;;;;;20.81;57.29;102281.41;4941019;29;20047;-78
2021/09/05 15:38:46;;;;;;;10.95;5.20;;;;;;;20.86;56.73;102279.69;4940167;29;20039;-78
2021/09/05 15:54:23;;;;;;;8.15;5.60;;;;;;;20.84;57.10;102263.13;4927549;29;20039;-78
2021/09/05 15:56:52;;;;;;;10.02;5.28;;;;;;;20.82;57.13;102267.47;4925030;29;20063;-78
2021/09/05 16:17:24;;;;;;;6.38;5.60;;;;;;;20.81;57.08;102285.78;4958225;29;20090;-79
2021/09/05 16:19:50;;;;;;;7.63;5.63;;;;;;;20.80;56.92;102269.22;4941076;29;20027;-78
2021/09/05 16:22:15;;;;;;;8.90;5.80;;;;;;;20.81;57.20;102270.09;4924276;28;20462;-78
2021/09/05 16:24:42;;;;;;;7.72;5.22;;;;;;;20.80;57.02;102277.06;4908831;29;20070;-78
2021/09/05 16:27:09;;;;;;;6.95;5.70;;;;;;;20.81;56.72;102270.09;4908203;29;20110;-78